Time;durP1;ratioP1;P1;durP2;ratioP2;P2;SDS_P1;SDS_P2;PMS_P1;PMS_P2;Temp;Humidity;BMP_temperature;BMP_pressure;BME280_temperature;BME280_humidity;BME280_pressure;Samples;Min_cycle;Max_cycle;Signal;HPM_P1;HPM_P2
2023/11/26 00:00:54;;;;;;;0.20;0.20;;;;;;;1.40;100.00;93952.25;5064540;28;20670;-61
2023/11/26 00:03:21;;;;;;;0.20;0.20;;;;;;;1.75;100.00;94000.59;5064283;28;20052;-62
2023/11/26 00:05:48;;;;;;;0.20;0.20;;;;;;;1.82;100.00;94000.63;5046484;28;20084;-62
2023/11/26 00:08:15;;;;;;;0.20;0.20;;;;;;;-0.74;98.69;93616.97;5064570;28;20045;-61
2023/11/26 00:10:41;;;;;;;0.20;0.20;;;;;;;1.76;99.07;93983.06;5064327;28;20051;-62
2023/11/26 00:13:08;;;;;;;0.20;0.20;;;;;;;1.44;100.00;94013.81;5065020;28;20075;-62
2023/11/26 00:15:35;;;;;;;0.20;0.20;;;;;;;1.23;100.00;93915.63;5064969;28;20048;-62
2023/11/26 00:18:02;;;;;;;0.20;0.20;;;;;;;1.49;98.47;93994.34;5063826;28;20060;-61
2023/11/26 00:20:28;;;;;;;0.20;0.20;;;;;;;1.14;95.24;93945.19;5064484;28;20163;-62
2023/11/26 00:22:56;;;;;;;0.20;0.20;;;;;;;1.58;94.12;93985.00;5062833;28;20052;-61
2023/11/26 00:25:23;;;;;;;0.20;0.20;;;;;;;1.15;95.24;93916.00;5064394;28;20049;-62
2023/11/26 00:27:50;;;;;;;0.20;0.20;;;;;;;1.61;95.95;93984.22;5064260;28;20404;-61
2023/11/26 00:30:16;;;;;;;0.20;0.20;;;;;;;1.66;97.60;93970.22;5046173;28;20492;-62
2023/11/26 00:32:43;;;;;;;0.20;0.20;;;;;;;1.75;96.53;93986.97;5063931;28;20056;-60
2023/11/26 00:35:12;;;;;;;0.20;0.20;;;;;;;1.58;96.55;93995.91;5062571;28;20639;-60
2023/11/26 00:37:39;;;;;;;0.20;0.20;;;;;;;0.92;95.75;93916.34;5063855;28;20128;-60
2023/11/26 00:40:06;;;;;;;0.20;0.20;;;;;;;1.68;95.69;94028.66;5063897;28;20056;-62
2023/11/26 00:42:33;;;;;;;0.20;0.20;;;;;;;1.87;96.20;94031.00;5063594;28;20060;-61
2023/11/26 00:45:00;;;;;;;0.20;0.20;;;;;;;1.58;96.52;94029.44;5046170;28;20052;-61
2023/11/26 00:47:26;;;;;;;0.20;0.20;;;;;;;1.62;99.00;94043.03;5063923;28;20070;-61
2023/11/26 00:49:55;;;;;;;0.20;0.20;;;;;;;1.25;94.83;93967.81;5063882;28;20102;-62
2023/11/26 00:52:22;;;;;;;0.20;0.20;;;;;;;1.70;95.16;94023.59;5063677;28;20075;-61
2023/11/26 00:54:49;;;;;;;0.20;0.20;;;;;;;1.14;95.32;93930.78;5046328;28;20045;-61
2023/11/26 00:57:17;;;;;;;0.20;0.20;;;;;;;1.57;94.09;94003.31;5063661;28;20051;-62
2023/11/26 00:59:44;;;;;;;0.20;0.20;;;;;;;1.39;94.68;94021.59;5061948;28;20439;-62
2023/11/26 01:02:11;;;;;;;0.20;0.20;;;;;;;1.33;98.98;94013.00;5058599;28;20059;-60
2023/11/26 01:04:38;;;;;;;0.20;0.20;;;;;;;1.29;100.00;94006.78;5042564;28;20079;-61
2023/11/26 01:07:05;;;;;;;0.20;0.20;;;;;;;1.08;100.00;94017.59;5043687;28;20056;-61
2023/11/26 01:09:32;;;;;;;0.20;0.20;;;;;;;1.24;100.00;94031.66;5044125;28;20157;-62
2023/11/26 01:11:59;;;;;;;0.20;0.20;;;;;;;0.96;100.00;93998.88;5043321;28;20063;-61
2023/11/26 01:14:26;;;;;;;0.20;0.20;;;;;;;0.99;100.00;94025.34;5043678;28;20051;-60
2023/11/26 01:16:53;;;;;;;0.20;0.20;;;;;;;0.77;100.00;93971.94;5043619;28;20048;-61
2023/11/26 01:19:20;;;;;;;0.20;0.20;;;;;;;0.96;100.00;94045.19;5043833;28;20113;-61
2023/11/26 01:21:46;;;;;;;0.20;0.20;;;;;;;1.13;100.00;94047.19;5043771;28;20161;-61
2023/11/26 01:24:14;;;;;;;0.20;0.20;;;;;;;-2.09;100.00;93536.00;5043980;28;20496;-61
2023/11/26 01:26:41;;;;;;;0.20;0.20;;;;;;;1.10;100.00;94047.97;5042616;28;20090;-61
2023/11/26 01:29:08;;;;;;;0.20;0.20;;;;;;;0.39;100.00;93925.47;5044233;28;20053;-60
2023/11/26 01:31:35;;;;;;;0.20;0.20;;;;;;;1.21;100.00;94037.09;5044009;28;20053;-61
2023/11/26 01:34:01;;;;;;;0.20;0.20;;;;;;;1.14;100.00;94032.41;5059043;28;20546;-60
2023/11/26 01:36:28;;;;;;;0.20;0.20;;;;;;;1.16;100.00;94049.16;5043574;28;20057;-61
2023/11/26 01:38:55;;;;;;;0.20;0.20;;;;;;;0.74;100.00;93958.31;5043908;28;20057;-61
2023/11/26 01:41:22;;;;;;;0.20;0.20;;;;;;;1.08;100.00;94023.03;5042162;28;20052;-61
2023/11/26 01:43:49;;;;;;;0.20;0.20;;;;;;;1.18;100.00;94027.75;5043223;28;20138;-60
2023/11/26 01:46:17;;;;;;;0.20;0.20;;;;;;;1.13;100.00;94047.19;5043427;28;20061;-60
2023/11/26 01:48:44;;;;;;;0.20;0.20;;;;;;;0.65;100.00;93998.75;5043797;28;20053;-60
2023/11/26 01:51:13;;;;;;;0.20;0.20;;;;;;;1.03;100.00;94053.38;5042150;28;20063;-60
2023/11/26 01:53:45;;;;;;;0.20;0.20;;;;;;;1.18;100.00;94044.13;5058298;28;20053;-59
2023/11/26 01:56:13;;;;;;;0.20;0.20;;;;;;;1.25;100.00;94027.78;5043358;28;20142;-60
2023/11/26 01:58:40;;;;;;;0.20;0.20;;;;;;;1.21;97.98;94032.44;5043121;28;20103;-60
2023/11/26 02:01:07;;;;;;;0.20;0.20;;;;;;;0.88;97.09;93980.94;5059834;28;20435;-60
2023/11/26 02:03:35;;;;;;;0.20;0.20;;;;;;;0.77;98.80;93946.66;5062766;28;20048;-59
2023/11/26 02:06:02;;;;;;;0.20;0.20;;;;;;;1.38;97.03;94048.06;5066914;28;20059;-60
2023/11/26 02:08:31;;;;;;;0.20;0.20;;;;;;;1.30;93.39;94019.22;5067193;28;20052;-61
2023/11/26 02:11:02;;;;;;;0.20;0.20;;;;;;;1.55;94.63;94060.97;5066773;28;20049;-59
2023/11/26 02:13:29;;;;;;;0.20;0.20;;;;;;;1.52;95.27;94053.56;5067107;28;20084;-60
2023/11/26 02:15:56;;;;;;;0.20;0.20;;;;;;;1.51;95.36;94052.00;5066748;28;20083;-60
2023/11/26 02:18:25;;;;;;;0.20;0.20;;;;;;;1.50;93.50;94050.44;5066735;28;20424;-60
2023/11/26 02:20:52;;;;;;;0.22;0.22;;;;;;;1.54;92.97;94073.03;5067133;28;20053;-59
2023/11/26 02:23:18;;;;;;;0.20;0.20;;;;;;;1.48;93.14;94063.69;5066724;28;20341;-60
2023/11/26 02:25:45;;;;;;;0.20;0.20;;;;;;;1.52;96.25;94053.56;5067120;28;20446;-61
2023/11/26 02:28:12;;;;;;;0.20;0.20;;;;;;;1.41;93.51;94058.19;5066692;28;20232;-60
2023/11/26 02:30:39;;;;;;;0.20;0.20;;;;;;;1.46;95.82;94054.31;5066447;28;20501;-61
2023/11/26 02:33:07;;;;;;;0.20;0.20;;;;;;;0.91;95.57;94017.53;5065276;28;20499;-61
2023/11/26 02:35:34;;;;;;;0.20;0.20;;;;;;;1.44;91.06;94068.34;5066485;28;20465;-61
2023/11/26 02:38:02;;;;;;;0.20;0.20;;;;;;;1.56;91.65;94076.16;5066672;28;20404;-60
2023/11/26 02:40:30;;;;;;;0.20;0.20;;;;;;;1.56;95.40;94067.97;5047593;28;20119;-59
2023/11/26 02:42:59;;;;;;;0.20;0.20;;;;;;;1.24;93.25;94058.94;5046178;28;20142;-58
2023/11/26 02:45:26;;;;;;;0.20;0.20;;;;;;;1.50;95.54;94066.78;5028304;28;20053;-60
2023/11/26 02:47:53;;;;;;;0.20;0.20;;;;;;;1.58;95.23;94148.63;5046145;28;20045;-61
2023/11/26 02:50:19;;;;;;;0.20;0.20;;;;;;;0.78;96.97;94038.88;5028551;28;20057;-61
2023/11/26 02:52:46;;;;;;;0.20;0.20;;;;;;;1.31;97.86;94116.19;5046079;28;20053;-60
2023/11/26 02:55:13;;;;;;;0.20;0.20;;;;;;;1.44;98.14;94177.38;5028405;28;20056;-60
2023/11/26 02:57:40;;;;;;;0.20;0.20;;;;;;;1.43;98.39;94115.84;5046219;28;20056;-61
2023/11/26 03:00:15;;;;;;;0.20;0.20;;;;;;;1.42;99.04;94155.16;5045902;28;20478;-60
2023/11/26 03:02:44;;;;;;;0.20;0.20;;;;;;;1.38;96.15;94151.66;5052580;28;20078;-61
2023/11/26 03:05:18;;;;;;;0.20;0.20;;;;;;;1.36;96.88;94147.75;5066063;28;20131;-60
2023/11/26 03:07:46;;;;;;;0.20;0.20;;;;;;;0.85;98.34;94085.22;5065862;28;20094;-59
2023/11/26 03:13:20;;;;;;;0.20;0.20;;;;;;;1.43;94.76;94175.84;5065339;28;20049;-60
2023/11/26 03:15:49;;;;;;;0.20;0.20;;;;;;;0.64;97.93;94090.53;5065562;28;20044;-60
2023/11/26 03:18:17;;;;;;;0.20;0.20;;;;;;;0.68;97.34;94074.22;5065297;28;20135;-60
2023/11/26 03:20:45;;;;;;;0.20;0.20;;;;;;;1.54;99.61;94219.50;5064195;28;20048;-60
2023/11/26 03:23:14;;;;;;;0.20;0.20;;;;;;;1.49;100.00;94209.75;5065457;28;20436;-59
2023/11/26 03:25:41;;;;;;;0.20;0.20;;;;;;;1.49;100.00;94242.47;5064520;28;20074;-60
2023/11/26 03:28:08;;;;;;;0.10;0.10;;;;;;;1.64;100.00;94239.81;5065327;28;20044;-59
2023/11/26 03:30:35;;;;;;;0.10;0.10;;;;;;;1.84;100.00;94238.34;5065198;28;20496;-60
2023/11/26 03:33:02;;;;;;;0.20;0.20;;;;;;;1.77;99.43;94271.84;5064833;28;20059;-60
2023/11/26 03:35:29;;;;;;;0.20;0.20;;;;;;;1.82;99.98;94237.97;5065192;28;20080;-60
2023/11/26 03:37:56;;;;;;;0.20;0.20;;;;;;;0.94;98.41;94147.50;5065200;28;20243;-59
2023/11/26 03:40:26;;;;;;;0.20;0.20;;;;;;;1.71;97.92;94257.00;5047138;28;20205;-59
2023/11/26 03:42:53;;;;;;;0.20;0.20;;;;;;;1.71;100.00;94248.06;5047114;28;20053;-60
2023/11/26 03:45:19;;;;;;;0.20;0.20;;;;;;;1.24;100.00;94178.84;5065139;28;20147;-59
2023/11/26 03:47:46;;;;;;;0.20;0.20;;;;;;;1.81;100.00;94285.50;5064763;28;20052;-60
2023/11/26 03:50:13;;;;;;;0.20;0.20;;;;;;;1.88;100.00;94289.03;5064892;28;20076;-61
2023/11/26 03:52:40;;;;;;;0.20;0.20;;;;;;;1.97;100.00;94292.22;5064718;28;20048;-59
2023/11/26 03:55:08;;;;;;;0.20;0.20;;;;;;;2.03;99.19;94312.53;5064615;28;20060;-59
2023/11/26 03:57:37;;;;;;;0.20;0.20;;;;;;;1.90;96.49;94302.34;5046539;28;20139;-60
2023/11/26 04:00:09;;;;;;;0.20;0.20;;;;;;;1.70;98.68;94309.22;5064567;28;20511;-60
2023/11/26 04:02:36;;;;;;;0.20;0.20;;;;;;;1.68;100.00;94322.44;5059237;28;20605;-60
2023/11/26 04:05:04;;;;;;;0.20;0.20;;;;;;;1.95;98.02;94392.00;5060242;28;20053;-61
2023/11/26 04:07:31;;;;;;;0.20;0.20;;;;;;;1.56;96.30;94321.59;5044709;28;20515;-60
2023/11/26 04:09:58;;;;;;;0.20;0.20;;;;;;;1.84;98.81;94391.16;5059967;28;20107;-60
2023/11/26 04:12:24;;;;;;;0.20;0.20;;;;;;;1.97;98.50;94395.13;5044270;28;20060;-60
2023/11/26 04:14:56;;;;;;;0.20;0.20;;;;;;;1.86;98.95;94421.56;5044926;28;20673;-60
2023/11/26 04:17:24;;;;;;;0.20;0.20;;;;;;;1.82;99.19;94412.59;5044120;28;20474;-60
2023/11/26 04:19:52;;;;;;;0.20;0.20;;;;;;;1.79;97.87;94399.72;5044879;28;20490;-60
2023/11/26 04:22:23;;;;;;;0.20;0.20;;;;;;;1.95;96.73;94375.63;5044208;28;20048;-60
2023/11/26 04:24:50;;;;;;;0.20;0.20;;;;;;;1.83;97.50;94365.03;5058824;28;20131;-60
2023/11/26 04:27:21;;;;;;;0.20;0.20;;;;;;;1.48;99.16;94385.44;5044305;28;20507;-59
2023/11/26 04:29:48;;;;;;;0.20;0.20;;;;;;;1.60;100.00;94378.91;5044330;28;20499;-60
2023/11/26 04:32:15;;;;;;;0.20;0.20;;;;;;;1.68;100.00;94377.00;5044317;28;20141;-60
2023/11/26 04:34:42;;;;;;;0.20;0.20;;;;;;;1.67;100.00;94386.34;5059366;28;20041;-60
2023/11/26 04:37:09;;;;;;;0.20;0.20;;;;;;;1.74;100.00;94379.00;5044211;28;20041;-59
2023/11/26 04:39:36;;;;;;;0.20;0.20;;;;;;;1.61;100.00;94376.97;5042471;28;20421;-60
2023/11/26 04:42:03;;;;;;;0.20;0.20;;;;;;;1.12;100.00;94296.34;5044312;28;20154;-60
2023/11/26 04:44:30;;;;;;;0.20;0.20;;;;;;;1.53;100.00;94365.97;5042515;28;20049;-61
2023/11/26 04:46:57;;;;;;;0.20;0.20;;;;;;;1.80;100.00;94379.44;5043738;28;20134;-61
2023/11/26 04:49:24;;;;;;;0.20;0.20;;;;;;;1.77;100.00;94396.56;5044477;28;20157;-58
2023/11/26 04:51:51;;;;;;;0.20;0.20;;;;;;;1.86;100.00;94397.00;5043737;28;20041;-60
2023/11/26 04:54:21;;;;;;;0.20;0.20;;;;;;;1.81;100.00;94413.72;5042740;28;20053;-60
2023/11/26 04:56:50;;;;;;;0.20;0.20;;;;;;;2.08;97.77;94417.81;5043779;28;20068;-61
2023/11/26 04:59:17;;;;;;;0.20;0.20;;;;;;;2.07;92.32;94433.41;5059244;28;20064;-61
2023/11/26 05:01:44;;;;;;;0.20;0.20;;;;;;;2.21;90.31;94430.00;5043929;28;20052;-60
2023/11/26 05:04:13;;;;;;;0.20;0.20;;;;;;;2.28;90.03;94454.59;5061767;28;20541;-60
2023/11/26 05:06:42;;;;;;;0.20;0.20;;;;;;;1.63;90.32;94363.75;5063652;28;20145;-58
2023/11/26 05:09:12;;;;;;;0.20;0.20;;;;;;;2.27;90.62;94442.13;5063974;28;20129;-59
2023/11/26 05:11:43;;;;;;;0.20;0.20;;;;;;;2.10;92.54;94457.25;5061981;28;20531;-60
2023/11/26 05:14:10;;;;;;;0.20;0.20;;;;;;;1.65;92.11;94378.56;5063811;28;20105;-60
2023/11/26 05:16:38;;;;;;;0.20;0.20;;;;;;;2.30;90.60;94457.75;5063460;28;20048;-59
2023/11/26 05:19:05;;;;;;;0.20;0.20;;;;;;;1.58;86.44;94346.53;5063968;28;20056;-60
2023/11/26 05:21:32;;;;;;;0.20;0.20;;;;;;;2.41;87.05;94486.69;5063967;28;20059;-60
2023/11/26 05:23:58;;;;;;;0.20;0.20;;;;;;;2.57;89.40;94489.13;5045377;28;20053;-61
2023/11/26 05:26:26;;;;;;;0.20;0.20;;;;;;;2.58;87.56;94521.53;5063574;28;20053;-61
2023/11/26 05:28:53;;;;;;;0.20;0.20;;;;;;;2.32;89.30;94504.59;5063629;28;20059;-61
2023/11/26 05:31:20;;;;;;;0.20;0.20;;;;;;;2.19;91.67;94456.91;5046286;28;20056;-60
2023/11/26 05:33:47;;;;;;;0.20;0.20;;;;;;;2.73;90.88;94547.00;5045538;28;20052;-60
2023/11/26 05:36:14;;;;;;;0.20;0.20;;;;;;;2.64;91.30;94568.41;5063609;28;20075;-61
2023/11/26 05:38:41;;;;;;;0.20;0.20;;;;;;;1.71;89.89;94458.88;5065704;28;20052;-60
2023/11/26 05:41:08;;;;;;;0.20;0.20;;;;;;;2.30;94.34;94602.47;5067049;28;20400;-60
2023/11/26 05:43:35;;;;;;;0.20;0.20;;;;;;;1.81;98.19;94533.78;5065186;28;20059;-61
2023/11/26 05:46:06;;;;;;;0.20;0.20;;;;;;;2.18;95.47;94586.38;5066436;28;20471;-60
2023/11/26 05:48:33;;;;;;;0.20;0.20;;;;;;;2.17;91.99;94617.56;5064816;28;20503;-60
2023/11/26 05:51:00;;;;;;;0.20;0.20;;;;;;;2.08;92.92;94615.16;5048508;28;20365;-60
2023/11/26 05:53:31;;;;;;;0.20;0.20;;;;;;;2.17;94.04;94601.19;5066412;28;20463;-61
2023/11/26 05:55:58;;;;;;;0.20;0.20;;;;;;;2.45;94.15;94650.63;5064872;28;20087;-59
2023/11/26 05:58:25;;;;;;;0.20;0.20;;;;;;;2.37;94.69;94614.25;5066419;28;20048;-60
2023/11/26 06:00:53;;;;;;;0.20;0.20;;;;;;;2.68;95.25;94670.31;5066738;28;20063;-60
2023/11/26 06:03:20;;;;;;;0.20;0.20;;;;;;;2.65;95.46;94654.69;5056144;28;20084;-61
2023/11/26 06:05:47;;;;;;;0.20;0.20;;;;;;;2.60;96.34;94668.69;5045510;28;20135;-61
2023/11/26 06:08:14;;;;;;;0.20;0.20;;;;;;;2.76;97.31;94655.56;5046754;28;20045;-61
2023/11/26 06:10:40;;;;;;;0.20;0.20;;;;;;;2.75;95.13;94671.16;5046843;28;20056;-61
2023/11/26 06:13:07;;;;;;;0.30;0.30;;;;;;;2.16;95.25;94566.88;5061703;28;20060;-61
2023/11/26 06:15:34;;;;;;;0.28;0.28;;;;;;;2.52;99.68;94683.44;5046579;28;20053;-60
2023/11/26 06:18:01;;;;;;;0.20;0.20;;;;;;;2.61;100.00;94665.56;5046606;28;20081;-61
2023/11/26 06:20:28;;;;;;;0.20;0.20;;;;;;;2.62;98.51;94688.22;5046125;28;20071;-61
2023/11/26 06:22:54;;;;;;;0.20;0.20;;;;;;;2.58;100.00;94676.47;5046789;28;20049;-59
2023/11/26 06:25:21;;;;;;;0.20;0.20;;;;;;;2.45;98.70;94680.66;5046217;28;20053;-60
2023/11/26 06:27:48;;;;;;;0.20;0.20;;;;;;;2.65;100.00;94714.78;5046278;28;20508;-60
2023/11/26 06:30:15;;;;;;;0.20;0.20;;;;;;;2.13;100.00;94619.50;5046011;28;20049;-61
2023/11/26 06:32:42;;;;;;;0.20;0.20;;;;;;;2.45;100.00;94697.03;5046068;28;20048;-60
2023/11/26 06:35:09;;;;;;;0.20;0.20;;;;;;;2.68;100.00;94730.44;5046290;28;20045;-61
2023/11/26 06:37:36;;;;;;;0.20;0.20;;;;;;;2.69;100.00;94727.31;5045814;28;20045;-61
2023/11/26 06:40:05;;;;;;;0.25;0.25;;;;;;;2.78;100.00;94740.69;5061871;28;20677;-61
2023/11/26 06:42:33;;;;;;;0.20;0.20;;;;;;;2.89;100.00;94742.31;5044294;28;20049;-60
2023/11/26 06:45:00;;;;;;;0.20;0.20;;;;;;;0.61;100.00;94374.47;5044503;28;20056;-60
2023/11/26 06:47:29;;;;;;;0.20;0.20;;;;;;;2.84;98.77;94744.63;5045293;28;20152;-60
2023/11/26 06:49:57;;;;;;;0.20;0.20;;;;;;;2.67;98.50;94718.72;5046254;28;20048;-62
2023/11/26 06:52:24;;;;;;;0.20;0.20;;;;;;;3.01;97.59;94776.81;5045681;28;20057;-60
2023/11/26 06:54:50;;;;;;;0.20;0.20;;;;;;;3.04;97.12;94792.47;5044950;28;20048;-62
2023/11/26 06:57:17;;;;;;;0.20;0.20;;;;;;;2.35;97.80;94679.41;5045547;28;20287;-61
2023/11/26 06:59:44;;;;;;;0.20;0.20;;;;;;;2.62;97.66;94753.81;5046172;28;20053;-59
2023/11/26 07:02:11;;;;;;;0.20;0.20;;;;;;;2.98;98.02;94832.25;5046146;28;20531;-60
2023/11/26 07:04:38;;;;;;;0.20;0.20;;;;;;;2.86;98.79;94819.63;5064497;28;20866;-59
2023/11/26 07:07:05;;;;;;;0.22;0.22;;;;;;;2.85;99.58;94822.72;5065653;28;20438;-60
2023/11/26 07:09:32;;;;;;;0.20;0.20;;;;;;;2.85;99.85;94822.72;5066384;28;20423;-61
2023/11/26 07:11:59;;;;;;;0.20;0.20;;;;;;;2.81;99.30;94838.31;5065586;28;20041;-60
2023/11/26 07:14:26;;;;;;;0.20;0.20;;;;;;;2.68;99.57;94834.28;5066017;28;20495;-61
2023/11/26 07:16:54;;;;;;;0.20;0.20;;;;;;;2.68;100.00;94850.66;5065303;28;20052;-60
2023/11/26 07:19:21;;;;;;;0.20;0.20;;;;;;;2.67;100.00;94832.72;5065924;28;20051;-60
2023/11/26 07:21:48;;;;;;;0.20;0.20;;;;;;;2.55;100.00;94824.75;5065439;28;20067;-60
2023/11/26 07:24:15;;;;;;;0.20;0.20;;;;;;;2.53;100.00;94865.34;5065481;28;20053;-61
2023/11/26 07:26:41;;;;;;;0.20;0.20;;;;;;;2.21;100.00;94809.53;5047847;28;20048;-59
2023/11/26 07:29:08;;;;;;;0.20;0.20;;;;;;;2.58;100.00;94873.19;5047700;28;20060;-60
2023/11/26 07:31:37;;;;;;;0.20;0.20;;;;;;;2.60;100.00;94870.88;5065351;28;20428;-60
2023/11/26 07:34:05;;;;;;;0.20;0.20;;;;;;;2.03;100.00;94800.31;5065495;28;20415;-61
2023/11/26 07:36:32;;;;;;;0.20;0.20;;;;;;;2.73;100.00;94885.88;5064854;28;20048;-61
2023/11/26 07:38:59;;;;;;;0.20;0.20;;;;;;;2.81;100.00;94893.00;5064994;28;20055;-60
2023/11/26 07:41:26;;;;;;;0.20;0.20;;;;;;;2.78;99.97;94910.13;5065092;28;20059;-59
2023/11/26 07:43:54;;;;;;;0.20;0.20;;;;;;;2.74;100.00;94909.28;5064761;28;20055;-60
2023/11/26 07:46:22;;;;;;;0.20;0.20;;;;;;;2.83;100.00;94912.50;5065085;28;20051;-60
2023/11/26 07:48:49;;;;;;;0.20;0.20;;;;;;;2.94;100.00;94918.91;5065006;28;20044;-61
2023/11/26 07:51:17;;;;;;;0.20;0.20;;;;;;;2.87;99.98;94925.09;5064806;28;20057;-61
2023/11/26 07:53:44;;;;;;;0.20;0.20;;;;;;;2.73;100.00;94924.13;5064864;28;20052;-60
2023/11/26 07:56:11;;;;;;;0.20;0.20;;;;;;;2.48;100.00;94865.66;5046524;28;20052;-60
2023/11/26 07:58:38;;;;;;;0.20;0.20;;;;;;;2.62;100.00;94882.22;5064124;28;20057;-61
2023/11/26 08:01:07;;;;;;;0.20;0.20;;;;;;;2.85;99.33;94921.13;5064821;28;20044;-61
2023/11/26 08:03:35;;;;;;;0.20;0.20;;;;;;;2.86;99.77;94928.19;5064430;28;20139;-61
2023/11/26 08:06:03;;;;;;;0.22;0.22;;;;;;;2.89;98.04;94939.16;5064850;28;20048;-60
2023/11/26 08:08:37;;;;;;;0.20;0.20;;;;;;;2.46;97.35;94881.63;5063062;28;20079;-60
2023/11/26 08:11:09;;;;;;;0.20;0.20;;;;;;;2.89;99.25;94943.84;5064400;28;20128;-61
2023/11/26 08:13:39;;;;;;;0.30;0.30;;;;;;;3.05;97.30;94955.38;5046753;28;20048;-60
2023/11/26 08:16:08;;;;;;;0.30;0.30;;;;;;;3.14;97.94;94972.25;5064584;28;20515;-60
2023/11/26 08:18:36;;;;;;;0.20;0.20;;;;;;;3.11;98.43;94962.84;5064423;28;20660;-61
2023/11/26 08:21:06;;;;;;;0.20;0.20;;;;;;;2.95;96.77;94961.50;5064299;28;20523;-61
2023/11/26 08:23:40;;;;;;;0.20;0.20;;;;;;;2.82;91.87;94977.34;5064203;28;20407;-61
2023/11/26 08:26:09;;;;;;;0.22;0.22;;;;;;;2.92;90.93;95008.72;5064364;28;20086;-62
2023/11/26 08:28:41;;;;;;;0.22;0.22;;;;;;;2.96;93.69;95004.84;5064314;28;20064;-61
2023/11/26 08:31:10;;;;;;;0.20;0.20;;;;;;;2.95;94.94;95024.38;5046471;28;20074;-61
2023/11/26 08:33:41;;;;;;;0.20;0.20;;;;;;;2.07;95.27;94937.66;5063974;28;20479;-60
2023/11/26 08:36:09;;;;;;;0.20;0.20;;;;;;;2.78;96.80;95030.41;5063774;28;20105;-61
2023/11/26 08:38:41;;;;;;;0.20;0.20;;;;;;;0.81;96.98;94721.81;5063735;28;20055;-62
2023/11/26 08:41:13;;;;;;;0.20;0.20;;;;;;;2.71;96.13;95041.22;5063829;28;20523;-62
2023/11/26 08:43:43;;;;;;;0.30;0.30;;;;;;;2.56;95.46;95055.84;5046207;28;20059;-62
2023/11/26 08:46:12;;;;;;;0.20;0.20;;;;;;;2.50;95.81;95040.91;5064341;28;20435;-61
2023/11/26 08:48:44;;;;;;;0.20;0.20;;;;;;;2.03;96.42;94955.91;5063038;28;20058;-61
2023/11/26 08:51:11;;;;;;;0.20;0.20;;;;;;;2.58;95.69;95053.50;5064014;28;20102;-60
2023/11/26 08:53:38;;;;;;;0.20;0.20;;;;;;;2.56;94.53;95055.84;5064085;28;20048;-61
2023/11/26 08:56:05;;;;;;;0.20;0.20;;;;;;;2.48;94.72;95021.38;5064091;28;20059;-60
2023/11/26 08:58:32;;;;;;;0.20;0.20;;;;;;;2.20;93.14;95004.53;5063311;28;20040;-61
2023/11/26 09:00:59;;;;;;;0.20;0.20;;;;;;;2.78;92.86;95063.19;5063809;28;20079;-60
2023/11/26 09:03:26;;;;;;;0.20;0.20;;;;;;;2.85;92.30;95066.00;5058721;28;20080;-60
2023/11/26 09:05:53;;;;;;;0.20;0.20;;;;;;;2.89;90.30;95075.06;5043850;28;20059;-59
2023/11/26 09:08:20;;;;;;;0.30;0.30;;;;;;;2.49;89.57;95040.13;5043704;28;20095;-60
2023/11/26 09:10:48;;;;;;;0.20;0.20;;;;;;;2.61;90.21;95101.94;5042027;28;20468;-60
2023/11/26 09:13:14;;;;;;;0.20;0.20;;;;;;;1.94;91.02;95007.25;5043436;28;20083;-61
2023/11/26 09:15:42;;;;;;;0.20;0.20;;;;;;;2.54;91.58;95107.31;5043944;28;20075;-59
2023/11/26 09:18:09;;;;;;;0.20;0.20;;;;;;;2.52;91.31;95104.16;5043240;28;20110;-61
2023/11/26 09:20:36;;;;;;;0.20;0.20;;;;;;;2.57;89.18;95122.97;5043962;28;20049;-61
2023/11/26 09:23:03;;;;;;;0.20;0.20;;;;;;;2.54;89.96;95116.31;5043552;28;20045;-61
2023/11/26 09:25:32;;;;;;;0.20;0.20;;;;;;;1.32;88.78;94949.28;5042636;28;20080;-60
2023/11/26 09:27:59;;;;;;;0.20;0.20;;;;;;;2.41;89.04;95127.78;5043507;28;20049;-60
2023/11/26 09:30:26;;;;;;;0.20;0.20;;;;;;;2.25;88.33;95127.13;5043874;28;20049;-60
2023/11/26 09:32:52;;;;;;;0.20;0.20;;;;;;;2.03;87.53;95098.66;5059131;28;20140;-60
2023/11/26 09:35:20;;;;;;;0.20;0.20;;;;;;;0.56;87.14;94883.22;5043842;28;20054;-60
2023/11/26 09:37:46;;;;;;;0.20;0.20;;;;;;;2.14;86.72;95142.53;5058924;28;20523;-60
2023/11/26 09:40:13;;;;;;;0.20;0.20;;;;;;;2.09;85.45;95151.81;5043747;28;20057;-61
2023/11/26 09:42:43;;;;;;;0.20;0.20;;;;;;;2.09;86.44;95145.53;5043458;28;20783;-61
2023/11/26 09:45:10;;;;;;;0.20;0.20;;;;;;;2.15;85.63;95165.97;5043867;28;20496;-60
2023/11/26 09:47:37;;;;;;;0.20;0.20;;;;;;;2.11;84.23;95182.28;5043584;28;20049;-59
2023/11/26 09:50:05;;;;;;;0.20;0.20;;;;;;;2.04;82.01;95164.97;5043386;28;20075;-58
2023/11/26 09:52:33;;;;;;;0.20;0.20;;;;;;;0.89;81.89;95006.84;5058386;28;20045;-59
2023/11/26 09:55:02;;;;;;;0.20;0.20;;;;;;;1.94;84.29;95176.47;5034619;28;20533;-60
2023/11/26 09:57:31;;;;;;;0.20;0.20;;;;;;;2.07;82.70;95214.16;5057829;28;20633;-60
2023/11/26 09:59:58;;;;;;;0.20;0.20;;;;;;;2.05;82.88;95204.78;5050193;28;20199;-59
2023/11/26 10:02:25;;;;;;;0.20;0.20;;;;;;;2.02;82.39;95210.94;5024961;28;20448;-60
2023/11/26 10:04:54;;;;;;;0.20;0.20;;;;;;;2.18;82.20;95241.69;5062455;28;20061;-63
2023/11/26 10:07:37;;;;;;;0.20;0.20;;;;;;;2.13;81.04;95244.72;5061627;28;20133;-59
2023/11/26 10:10:12;;;;;;;0.20;0.20;;;;;;;2.09;81.65;95225.53;5063255;28;20547;-60
2023/11/26 10:12:51;;;;;;;0.20;0.20;;;;;;;2.02;82.30;95249.16;5063023;28;20146;-60
2023/11/26 10:15:20;;;;;;;0.20;0.20;;;;;;;2.06;80.98;95253.56;5063269;28;20587;-60
2023/11/26 10:18:04;;;;;;;0.20;0.20;;;;;;;1.60;80.52;95188.28;5061811;28;20469;-59
2023/11/26 10:20:50;;;;;;;0.20;0.20;;;;;;;1.43;81.28;95176.63;5063624;28;20052;-60
2023/11/26 10:23:25;;;;;;;0.20;0.20;;;;;;;1.07;80.72;95100.69;5066009;28;20967;-59
2023/11/26 10:25:52;;;;;;;0.20;0.20;;;;;;;2.11;80.11;95285.22;5066458;28;20084;-61
2023/11/26 10:28:19;;;;;;;0.20;0.20;;;;;;;2.18;79.47;95274.47;5066521;28;20506;-59
2023/11/26 10:30:45;;;;;;;0.20;0.20;;;;;;;2.25;78.43;95288.25;5066598;28;20052;-59
2023/11/26 10:33:12;;;;;;;0.20;0.20;;;;;;;2.31;78.73;95267.72;5066611;28;20526;-59
2023/11/26 10:35:54;;;;;;;0.20;0.20;;;;;;;2.61;77.62;95294.03;5048806;28;20106;-60
2023/11/26 10:38:27;;;;;;;0.20;0.20;;;;;;;2.37;79.82;95269.00;5066459;28;20143;-59
2023/11/26 10:40:56;;;;;;;0.20;0.20;;;;;;;2.04;80.15;95255.06;5066384;28;20049;-60
2023/11/26 10:43:23;;;;;;;0.20;0.20;;;;;;;2.49;82.57;95307.06;5048533;28;20113;-60
2023/11/26 10:45:51;;;;;;;0.20;0.20;;;;;;;2.51;81.92;95315.69;5066428;28;20143;-60
2023/11/26 10:48:18;;;;;;;0.20;0.20;;;;;;;2.64;82.42;95319.88;5066507;28;20135;-59
2023/11/26 10:51:17;;;;;;;0.20;0.20;;;;;;;2.84;80.35;95329.59;5066358;28;20114;-59
2023/11/26 10:54:08;;;;;;;0.20;0.20;;;;;;;3.12;82.06;95338.31;5066515;28;20068;-59
2023/11/26 10:56:38;;;;;;;;;;;;;;;3.13;79.83;95340.69;5066732;28;20412;-60
2023/11/26 10:59:14;;;;;;;0.20;0.20;;;;;;;2.57;80.18;95293.19;5048948;28;19925;-61
2023/11/26 11:01:42;;;;;;;0.28;0.28;;;;;;;2.99;80.10;95342.38;5066432;28;20084;-59
2023/11/26 11:04:13;;;;;;;0.20;0.20;;;;;;;2.99;81.91;95354.09;5066078;28;20515;-60
2023/11/26 11:06:43;;;;;;;0.30;0.30;;;;;;;2.83;79.14;95306.94;5065966;28;20167;-59
2023/11/26 11:09:21;;;;;;;0.20;0.20;;;;;;;3.26;79.98;95341.28;5065771;28;20428;-59
2023/11/26 11:14:30;;;;;;;0.20;0.20;;;;;;;3.75;76.69;95374.94;4865530;26;20061;-59
2023/11/26 11:16:57;;;;;;;0.25;0.25;;;;;;;3.94;73.82;95372.13;5015172;28;20574;-57
2023/11/26 11:19:49;;;;;;;0.30;0.30;;;;;;;4.13;71.84;95347.34;5023908;28;20061;-59
2023/11/26 11:22:16;;;;;;;0.30;0.30;;;;;;;4.57;73.93;95361.22;5028191;28;20053;-60
2023/11/26 11:24:43;;;;;;;0.28;0.28;;;;;;;4.79;68.63;95367.78;5038994;28;20578;-57
2023/11/26 11:27:11;;;;;;;0.30;0.30;;;;;;;4.57;67.36;95397.66;5023904;28;20077;-58
2023/11/26 11:29:39;;;;;;;0.30;0.30;;;;;;;4.97;68.10;95396.19;5023909;28;20132;-58
2023/11/26 11:32:05;;;;;;;0.30;0.30;;;;;;;4.92;67.07;95391.81;5024125;28;20045;-58
2023/11/26 11:34:33;;;;;;;0.30;0.30;;;;;;;4.53;66.37;95363.94;5022993;28;20053;-59
2023/11/26 11:37:02;;;;;;;0.30;0.30;;;;;;;4.69;65.42;95397.41;5039163;28;20127;-58
2023/11/26 11:40:04;;;;;;;0.30;0.30;;;;;;;4.72;66.04;95397.84;5022374;28;20396;-59
2023/11/26 11:42:30;;;;;;;0.30;0.30;;;;;;;4.68;62.54;95439.72;5011856;28;20053;-59
2023/11/26 11:45:26;;;;;;;0.30;0.30;;;;;;;4.64;65.12;95416.97;5024176;28;20061;-58
2023/11/26 11:47:53;;;;;;;0.30;0.30;;;;;;;4.56;67.36;95382.38;5024253;28;20061;-59
2023/11/26 11:50:29;;;;;;;0.30;0.30;;;;;;;4.12;68.40;95354.00;5038619;28;20045;-58